createdAt,value
2023-02-24T00:02:00.930Z,97911.56
2023-02-24T00:04:32.550Z,97911.03
2023-02-24T00:07:00.787Z,97908.22
2023-02-24T00:09:31.699Z,97903.34
2023-02-24T00:12:05.676Z,97910.88
2023-02-24T00:14:36.618Z,97906.88
2023-02-24T00:17:08.069Z,97900.03
2023-02-24T00:19:37.501Z,97901.66
2023-02-24T00:22:06.757Z,97907.50
2023-02-24T00:24:36.682Z,97901.47
2023-02-24T00:27:12.385Z,97901.47
2023-02-24T00:29:42.389Z,97892.75
2023-02-24T00:32:13.825Z,97894.59
2023-02-24T00:34:42.615Z,97892.41
2023-02-24T00:37:13.224Z,97890.16
2023-02-24T00:39:42.428Z,97895.22
2023-02-24T00:42:10.134Z,97893.63
2023-02-24T00:44:40.566Z,97891.38
2023-02-24T00:47:10.636Z,97891.81
2023-02-24T00:49:42.759Z,97887.78
2023-02-24T00:52:14.660Z,97887.56
2023-02-24T00:54:43.391Z,97885.38
2023-02-24T00:57:11.665Z,97876.91
2023-02-24T00:59:40.535Z,97875.28
2023-02-24T01:02:08.999Z,97876.13
2023-02-24T01:04:37.973Z,97873.06
2023-02-24T01:07:11.169Z,97870.84
2023-02-24T01:09:42.530Z,97870.41
2023-02-24T01:12:27.697Z,97866.16
2023-02-24T01:14:56.943Z,97866.78
2023-02-24T01:17:24.683Z,97861.53
2023-02-24T01:20:00.764Z,97868.78
2023-02-24T01:22:29.223Z,97858.09
2023-02-24T01:24:56.870Z,97856.69
2023-02-24T01:27:25.436Z,97862.97
2023-02-24T01:29:54.185Z,97856.06
2023-02-24T01:32:22.032Z,97852.44
2023-02-24T01:34:53.639Z,97853.66
2023-02-24T01:37:21.521Z,97843.56
2023-02-24T01:39:51.782Z,97831.09
2023-02-24T01:42:22.178Z,97834.72
2023-02-24T01:44:52.762Z,97832.88
2023-02-24T01:47:21.949Z,97838.53
2023-02-24T01:49:54.190Z,97823.59
2023-02-24T01:52:25.717Z,97826.59
2023-02-24T01:55:04.667Z,97817.91
2023-02-24T01:57:36.303Z,97820.31
2023-02-24T02:00:11.544Z,97822.72
2023-02-24T02:02:42.947Z,97817.47
2023-02-24T02:05:12.456Z,97822.72
2023-02-24T02:07:42.047Z,97820.31
2023-02-24T02:10:11.463Z,97820.09
2023-02-24T02:12:44.587Z,97825.53
2023-02-24T02:15:15.687Z,97812.63
2023-02-24T02:17:45.942Z,97809.38
2023-02-24T02:20:24.626Z,97806.91
2023-02-24T02:23:21.719Z,97809.97
2023-02-24T02:26:09.123Z,97809.16
2023-02-24T02:28:54.159Z,97806.13
2023-02-24T02:31:46.816Z,97805.13
2023-02-24T02:34:33.825Z,97807.34
2023-02-24T02:37:13.757Z,97803.94
2023-02-24T02:40:00.349Z,97810.66
2023-02-24T02:42:30.982Z,97806.59
2023-02-24T02:45:06.190Z,97810.81
2023-02-24T02:47:41.442Z,97797.50
2023-02-24T02:50:13.205Z,97801.31
2023-02-24T02:52:43.506Z,97794.88
2023-02-24T02:55:22.818Z,97793.25
2023-02-24T02:57:53.518Z,97795.03
2023-02-24T03:00:30.269Z,97792.84
2023-02-24T03:03:09.059Z,97793.06
2023-02-24T03:05:47.241Z,97800.13
2023-02-24T03:08:25.900Z,97795.69
2023-02-24T03:10:57.731Z,97793.50
2023-02-24T03:13:31.139Z,97795.75
2023-02-24T03:16:04.652Z,97794.53
2023-02-24T03:18:38.188Z,97799.41
2023-02-24T03:21:08.079Z,97784.06
2023-02-24T03:23:40.691Z,97788.09
2023-02-24T03:26:17.319Z,97796.75
2023-02-24T03:29:07.054Z,97786.66
2023-02-24T03:31:47.116Z,97786.47
2023-02-24T03:34:41.862Z,97792.13
2023-02-24T03:37:11.410Z,97790.53
2023-02-24T03:39:39.835Z,97790.69
2023-02-24T03:42:13.338Z,97787.28
2023-02-24T03:44:41.532Z,97785.44
2023-02-24T03:47:10.198Z,97781.22
2023-02-24T03:49:39.886Z,97780.81
2023-02-24T03:52:13.523Z,97778.38
2023-02-24T03:55:12.363Z,97772.69
2023-02-24T03:57:55.731Z,97772.13
2023-02-24T04:00:35.831Z,97771.94
2023-02-24T04:03:25.719Z,97772.72
2023-02-24T04:06:16.218Z,97766.25
2023-02-24T04:08:53.605Z,97765.03
2023-02-24T04:11:27.471Z,97763.22
2023-02-24T04:14:06.868Z,97772.69
2023-02-24T04:16:41.694Z,97754.31
2023-02-24T04:19:14.233Z,97763.41
2023-02-24T04:21:44.531Z,97754.16
2023-02-24T04:24:16.543Z,97760.00
2023-02-24T04:26:46.573Z,97751.72
2023-02-24T04:29:24.054Z,97745.69
2023-02-24T04:31:58.955Z,97747.28
2023-02-24T04:34:32.747Z,97741.66
2023-02-24T04:37:03.622Z,97735.41
2023-02-24T04:39:33.119Z,97728.38
2023-02-24T04:42:02.068Z,97739.88
2023-02-24T04:44:30.233Z,97735.44
2023-02-24T04:46:59.152Z,97735.25
2023-02-24T04:49:28.579Z,97729.97
2023-02-24T04:51:58.185Z,97728.97
2023-02-24T04:54:25.810Z,97724.72
2023-02-24T04:56:54.126Z,97716.69
2023-02-24T04:59:22.511Z,97714.22
2023-02-24T05:01:55.030Z,97715.06
2023-02-24T05:04:21.871Z,97701.75
2023-02-24T05:06:50.512Z,97710.81
2023-02-24T05:09:19.219Z,97700.97
2023-02-24T05:11:49.510Z,97702.34
2023-02-24T05:14:21.079Z,97703.97
2023-02-24T05:16:51.117Z,97705.38
2023-02-24T05:19:35.634Z,97709.84
2023-02-24T05:22:07.831Z,97705.59
2023-02-24T05:24:35.556Z,97698.16
2023-02-24T05:27:04.410Z,97690.47
2023-02-24T05:29:35.410Z,97679.97
2023-02-24T05:32:06.344Z,97682.97
2023-02-24T05:34:36.318Z,97676.28
2023-02-24T05:37:10.411Z,97671.03
2023-02-24T05:39:41.341Z,97672.84
2023-02-24T05:42:08.502Z,97675.47
2023-02-24T05:44:36.409Z,97677.09
2023-02-24T05:47:06.118Z,97671.84
2023-02-24T05:49:35.680Z,97667.19
2023-02-24T05:52:10.028Z,97657.28
2023-02-24T05:54:40.324Z,97671.00
2023-02-24T05:57:12.723Z,97663.31
2023-02-24T05:59:42.375Z,97667.56
2023-02-24T06:02:13.580Z,97661.53
2023-02-24T06:04:58.875Z,97662.53
2023-02-24T06:07:28.835Z,97669.59
2023-02-24T06:09:58.410Z,97674.44
2023-02-24T06:12:31.786Z,97665.56
2023-02-24T06:15:02.426Z,97667.31
2023-02-24T06:17:29.931Z,97672.00
2023-02-24T06:19:58.436Z,97670.38
2023-02-24T06:22:27.512Z,97658.88
2023-02-24T06:24:57.386Z,97660.50
2023-02-24T06:27:25.597Z,97663.13
2023-02-24T06:29:55.055Z,97663.69
2023-02-24T06:32:26.274Z,97673.19
2023-02-24T06:34:55.660Z,97665.31
2023-02-24T06:37:26.248Z,97672.97
2023-02-24T06:39:54.003Z,97679.63
2023-02-24T06:42:25.924Z,97678.84
2023-02-24T06:44:55.273Z,97671.94
2023-02-24T06:47:24.326Z,97679.00
2023-02-24T06:49:53.436Z,97673.31
2023-02-24T06:52:22.119Z,97662.19
2023-02-24T06:54:52.537Z,97668.25
2023-02-24T06:57:21.595Z,97680.16
2023-02-24T06:59:49.784Z,97678.34
2023-02-24T07:02:17.713Z,97679.75
2023-02-24T07:04:49.942Z,97670.63
2023-02-24T07:07:19.826Z,97679.13
2023-02-24T07:09:47.615Z,97671.81
2023-02-24T07:12:21.424Z,97674.41
2023-02-24T07:14:51.046Z,97669.16
2023-02-24T07:17:21.052Z,97661.47
2023-02-24T07:19:49.040Z,97655.38
2023-02-24T07:22:18.278Z,97661.38
2023-02-24T07:24:46.809Z,97661.78
2023-02-24T07:27:24.297Z,97655.50
2023-02-24T07:29:53.767Z,97655.06
2023-02-24T07:32:23.906Z,97654.84
2023-02-24T07:34:52.622Z,97644.72
2023-02-24T07:37:25.404Z,97660.66
2023-02-24T07:39:55.366Z,97640.44
2023-02-24T07:42:24.341Z,97640.38
2023-02-24T07:44:52.767Z,97646.19
2023-02-24T07:47:22.096Z,97650.81
2023-02-24T07:49:51.798Z,97640.66
2023-02-24T07:52:20.485Z,97637.97
2023-02-24T07:54:50.690Z,97642.56
2023-02-24T07:57:19.399Z,97636.25
2023-02-24T07:59:48.756Z,97634.59
2023-02-24T08:02:19.256Z,97629.91
2023-02-24T08:04:52.644Z,97633.44
2023-02-24T08:07:25.571Z,97620.66
2023-02-24T08:10:09.936Z,97618.97
2023-02-24T08:12:43.578Z,97611.22
2023-02-24T08:15:25.186Z,97604.47
2023-02-24T08:18:00.637Z,97603.72
2023-02-24T08:20:52.290Z,97589.81
2023-02-24T08:23:20.709Z,97592.16
2023-02-24T08:25:49.678Z,97590.59
2023-02-24T08:28:19.184Z,97591.34
2023-02-24T08:30:52.262Z,97579.56
2023-02-24T08:33:23.391Z,97582.94
2023-02-24T08:36:02.684Z,97578.47
2023-02-24T08:38:42.764Z,97584.13
2023-02-24T08:41:18.930Z,97579.78
2023-02-24T08:43:50.017Z,97578.88
2023-02-24T08:46:27.076Z,97579.69
2023-02-24T08:48:58.513Z,97572.13
2023-02-24T08:51:35.607Z,97563.50
2023-02-24T08:54:17.180Z,97557.84
2023-02-24T08:56:50.993Z,97560.50
2023-02-24T08:59:35.618Z,97564.44
2023-02-24T09:02:30.833Z,97563.06
2023-02-24T09:05:13.874Z,97559.81
2023-02-24T09:07:45.582Z,97561.44
2023-02-24T09:10:19.558Z,97559.69
2023-02-24T09:12:49.607Z,97559.81
2023-02-24T09:15:17.960Z,97558.41
2023-02-24T09:17:47.064Z,97552.78
2023-02-24T09:20:34.705Z,97551.28
2023-02-24T09:23:05.499Z,97549.47
2023-02-24T09:25:51.231Z,97547.56
2023-02-24T09:28:26.042Z,97545.03
2023-02-24T09:30:56.216Z,97545.28
2023-02-24T09:33:39.234Z,97548.94
2023-02-24T09:36:31.007Z,97546.28
2023-02-24T09:39:02.565Z,97546.81
2023-02-24T09:41:33.337Z,97534.81
2023-02-24T09:44:18.804Z,97538.94
2023-02-24T09:46:56.083Z,97537.41
2023-02-24T09:49:41.284Z,97533.63
2023-02-24T09:52:18.810Z,97534.69
2023-02-24T09:55:07.991Z,97541.50
2023-02-24T09:58:04.386Z,97538.53
2023-02-24T10:00:45.083Z,97540.22
2023-02-24T10:03:43.127Z,97530.78
2023-02-24T10:06:23.251Z,97520.69
2023-02-24T10:09:11.978Z,97524.38
2023-02-24T10:11:54.787Z,97518.84
2023-02-24T10:14:24.183Z,97516.91
2023-02-24T10:17:12.016Z,97512.63
2023-02-24T10:19:41.658Z,97510.69
2023-02-24T10:22:29.216Z,97507.31
2023-02-24T10:25:37.230Z,97514.91
2023-02-24T10:28:37.520Z,97506.28
2023-02-24T10:31:26.445Z,97502.91
2023-02-24T10:34:06.842Z,97505.09
2023-02-24T10:36:37.425Z,97495.88
2023-02-24T10:39:21.329Z,97495.47
2023-02-24T10:41:58.879Z,97490.09
2023-02-24T10:44:37.120Z,97493.78
2023-02-24T10:47:13.852Z,97481.69
2023-02-24T10:49:43.640Z,97487.06
2023-02-24T10:52:40.429Z,97478.34
2023-02-24T10:55:35.176Z,97469.91
2023-02-24T10:58:07.702Z,97465.09
2023-02-24T11:01:01.856Z,97445.94
2023-02-24T11:03:46.577Z,97455.63
2023-02-24T11:06:32.665Z,97436.56
2023-02-24T11:09:19.950Z,97434.00
2023-02-24T11:12:05.482Z,97427.66
2023-02-24T11:15:03.138Z,97431.75
2023-02-24T11:17:32.162Z,97424.72
2023-02-24T11:20:11.856Z,97425.22
2023-02-24T11:22:43.172Z,97416.53
2023-02-24T11:25:47.566Z,97395.06
2023-02-24T11:28:31.832Z,97396.84
2023-02-24T11:31:15.263Z,97388.78
2023-02-24T11:34:10.358Z,97385.78
2023-02-24T11:36:59.083Z,97381.06
2023-02-24T11:39:53.353Z,97372.91
2023-02-24T11:42:33.309Z,97364.97
2023-02-24T11:45:19.887Z,97362.53
2023-02-24T11:48:00.258Z,97358.34
2023-02-24T11:50:53.455Z,97363.31
2023-02-24T11:53:50.895Z,97345.38
2023-02-24T11:56:34.216Z,97340.66
2023-02-24T11:59:12.604Z,97338.00
2023-02-24T12:01:47.350Z,97345.16
2023-02-24T12:04:34.172Z,97338.31
2023-02-24T12:07:33.874Z,97335.31
2023-02-24T12:10:17.126Z,97332.19
2023-02-24T12:12:53.981Z,97324.53
2023-02-24T12:15:24.974Z,97325.09
2023-02-24T12:17:59.083Z,97324.72
2023-02-24T12:20:42.843Z,97311.69
2023-02-24T12:23:25.123Z,97310.56
2023-02-24T12:26:14.309Z,97307.69
2023-02-24T12:29:08.177Z,97295.78
2023-02-24T12:31:56.562Z,97295.97
2023-02-24T12:34:31.103Z,97289.13
2023-02-24T12:37:18.201Z,97285.38
2023-02-24T12:40:03.332Z,97285.13
2023-02-24T12:42:56.854Z,97271.47
2023-02-24T12:45:37.624Z,97273.06
2023-02-24T12:48:08.034Z,97269.44
2023-02-24T12:50:49.464Z,97264.31
2023-02-24T12:53:37.458Z,97264.78
2023-02-24T12:56:29.577Z,97262.94
2023-02-24T12:59:05.875Z,97255.22
2023-02-24T13:01:54.364Z,97257.88
2023-02-24T13:04:52.168Z,97252.34
2023-02-24T13:07:37.845Z,97241.94
2023-02-24T13:10:21.482Z,97234.56
2023-02-24T13:12:58.044Z,97221.47
2023-02-24T13:15:32.327Z,97222.56
2023-02-24T13:18:02.154Z,97222.81
2023-02-24T13:20:36.882Z,97217.56
2023-02-24T13:23:20.714Z,97214.38
2023-02-24T13:25:53.769Z,97219.34
2023-02-24T13:28:25.525Z,97209.06
2023-02-24T13:31:03.082Z,97205.72
2023-02-24T13:33:35.733Z,97203.31
2023-02-24T13:36:23.781Z,97194.84
2023-02-24T13:39:20.799Z,97199.91
2023-02-24T13:41:49.163Z,97191.13
2023-02-24T13:44:27.388Z,97189.38
2023-02-24T13:47:29.007Z,97182.00
2023-02-24T13:50:16.632Z,97177.97
2023-02-24T13:52:59.646Z,97182.50
2023-02-24T13:55:51.045Z,97170.81
2023-02-24T13:58:40.749Z,97161.34
2023-02-24T14:01:18.778Z,97170.41
2023-02-24T14:04:06.299Z,97162.31
2023-02-24T14:06:37.945Z,97164.72
2023-02-24T14:09:07.018Z,97153.06
2023-02-24T14:11:39.459Z,97148.09
2023-02-24T14:14:17.780Z,97148.91
2023-02-24T14:16:50.166Z,97146.00
2023-02-24T14:19:18.505Z,97139.91
2023-02-24T14:21:50.791Z,97129.31
2023-02-24T14:24:20.488Z,97123.44
2023-02-24T14:26:52.241Z,97117.09
2023-02-24T14:29:22.961Z,97128.75
2023-02-24T14:31:55.834Z,97115.78
2023-02-24T14:34:28.812Z,97110.22
2023-02-24T14:37:03.222Z,97112.59
2023-02-24T14:39:35.130Z,97102.78
2023-02-24T14:42:12.727Z,97106.47
2023-02-24T14:44:45.858Z,97101.72
2023-02-24T14:47:18.233Z,97099.84
2023-02-24T14:50:03.473Z,97098.00
2023-02-24T14:52:36.204Z,97092.94
2023-02-24T14:55:22.544Z,97083.91
2023-02-24T14:58:03.153Z,97083.13
2023-02-24T15:00:37.811Z,97077.53
2023-02-24T15:03:13.682Z,97074.63
2023-02-24T15:05:46.203Z,97076.44
2023-02-24T15:08:39.220Z,97070.63
2023-02-24T15:11:23.108Z,97059.75
2023-02-24T15:13:57.027Z,97060.25
2023-02-24T15:16:35.833Z,97044.88
2023-02-24T15:19:05.337Z,97051.75
2023-02-24T15:21:40.992Z,97045.38
2023-02-24T15:24:30.183Z,97046.97
2023-02-24T15:27:02.453Z,97043.25
2023-02-24T15:29:32.325Z,97051.16
2023-02-24T15:32:01.838Z,97046.91
2023-02-24T15:34:36.339Z,97043.16
2023-02-24T15:37:17.974Z,97045.84
2023-02-24T15:39:46.287Z,97041.03
2023-02-24T15:42:29.062Z,97040.44
2023-02-24T15:44:59.624Z,97044.63
2023-02-24T15:47:34.805Z,97034.75
2023-02-24T15:50:04.774Z,97034.19
2023-02-24T15:52:34.538Z,97029.78
2023-02-24T15:55:04.051Z,97021.78
2023-02-24T15:57:34.749Z,97018.56
2023-02-24T16:00:09.881Z,97019.38
2023-02-24T16:02:37.843Z,97024.88
2023-02-24T16:05:06.384Z,97022.19
2023-02-24T16:07:38.780Z,97008.34
2023-02-24T16:10:10.911Z,96988.19
2023-02-24T16:12:47.006Z,96988.44
2023-02-24T16:15:21.007Z,96997.94
2023-02-24T16:17:52.367Z,96996.59
2023-02-24T16:20:28.038Z,96994.41
2023-02-24T16:22:58.741Z,96990.88
2023-02-24T16:25:30.515Z,96996.38
2023-02-24T16:27:58.641Z,96993.22
2023-02-24T16:30:31.789Z,96991.03
2023-02-24T16:33:05.139Z,96986.22
2023-02-24T16:35:33.024Z,96983.59
2023-02-24T16:38:01.098Z,96987.53
2023-02-24T16:40:38.356Z,96987.75
2023-02-24T16:43:06.950Z,96988.03
2023-02-24T16:45:37.023Z,96971.66
2023-02-24T16:48:09.865Z,96957.94
2023-02-24T16:50:41.220Z,96961.56
2023-02-24T16:53:16.189Z,96967.91
2023-02-24T16:55:43.759Z,96972.31
2023-02-24T16:58:13.242Z,96969.72
2023-02-24T17:00:43.635Z,96962.03
2023-02-24T17:03:21.087Z,96970.22
2023-02-24T17:05:50.574Z,96972.56
2023-02-24T17:08:19.093Z,96967.75
2023-02-24T17:10:50.358Z,96950.03
2023-02-24T17:13:21.050Z,96948.97
2023-02-24T17:15:55.270Z,96956.31
2023-02-24T17:18:25.674Z,96975.00
2023-02-24T17:20:56.269Z,96975.84
2023-02-24T17:23:24.894Z,96979.47
2023-02-24T17:25:55.291Z,96982.16
2023-02-24T17:28:23.075Z,96981.84
2023-02-24T17:30:51.247Z,96976.81
2023-02-24T17:33:20.799Z,96989.31
2023-02-24T17:35:49.487Z,96975.72
2023-02-24T17:38:19.811Z,96967.38
2023-02-24T17:40:48.451Z,96966.81
2023-02-24T17:43:16.698Z,96964.16
2023-02-24T17:45:46.326Z,96958.09
2023-02-24T17:48:15.083Z,96945.75
2023-02-24T17:50:44.351Z,96961.03
2023-02-24T17:53:12.941Z,96958.44
2023-02-24T17:55:55.803Z,96945.75
2023-02-24T17:58:28.271Z,96944.19
2023-02-24T18:00:55.711Z,96939.69
2023-02-24T18:03:23.596Z,96932.34
2023-02-24T18:05:59.704Z,96918.03
2023-02-24T18:08:28.764Z,96918.34
2023-02-24T18:11:00.016Z,96898.19
2023-02-24T18:13:31.465Z,96899.06
2023-02-24T18:16:01.019Z,96892.97
2023-02-24T18:18:31.435Z,96883.66
2023-02-24T18:21:02.995Z,96881.56
2023-02-24T18:23:30.922Z,96869.13
2023-02-24T18:26:03.642Z,96869.50
2023-02-24T18:28:32.255Z,96881.31
2023-02-24T18:31:02.505Z,96896.81
2023-02-24T18:33:31.537Z,96890.16
2023-02-24T18:36:01.765Z,96897.00
2023-02-24T18:38:31.645Z,96891.16
2023-02-24T18:41:01.267Z,96889.50
2023-02-24T18:43:30.763Z,96892.16
2023-02-24T18:46:00.366Z,96892.25
2023-02-24T18:48:30.536Z,96882.56
2023-02-24T18:50:59.366Z,96880.19
2023-02-24T18:53:31.302Z,96878.03
2023-02-24T18:56:01.905Z,96875.66
2023-02-24T18:58:32.089Z,96863.03
2023-02-24T19:00:59.820Z,96853.50
2023-02-24T19:03:28.092Z,96843.19
2023-02-24T19:05:57.507Z,96842.97
2023-02-24T19:08:28.991Z,96842.41
2023-02-24T19:10:59.422Z,96842.72
2023-02-24T19:13:27.688Z,96837.72
2023-02-24T19:15:55.516Z,96833.22
2023-02-24T19:18:24.010Z,96829.69
2023-02-24T19:20:52.509Z,96832.28
2023-02-24T19:23:20.981Z,96834.34
2023-02-24T19:25:49.898Z,96829.16
2023-02-24T19:28:18.303Z,96834.94
2023-02-24T19:31:00.853Z,96839.13
2023-02-24T19:33:47.720Z,96827.47
2023-02-24T19:36:53.804Z,96827.72
2023-02-24T19:39:54.285Z,96829.84
2023-02-24T19:43:03.036Z,96834.88
2023-02-24T19:46:12.606Z,96824.41
2023-02-24T19:49:14.020Z,96836.00
2023-02-24T19:52:22.843Z,96827.81
2023-02-24T19:55:32.069Z,96816.91
2023-02-24T19:58:40.969Z,96809.75
2023-02-24T20:01:44.369Z,96809.75
2023-02-24T20:04:51.901Z,96794.41
2023-02-24T20:07:53.605Z,96784.75
2023-02-24T20:11:12.247Z,96782.38
2023-02-24T20:14:22.232Z,96768.31
2023-02-24T20:17:31.018Z,96767.44
2023-02-24T20:20:43.130Z,96764.25
2023-02-24T20:23:46.056Z,96773.22
2023-02-24T20:26:53.963Z,96769.03
2023-02-24T20:29:57.869Z,96763.47
2023-02-24T20:33:07.178Z,96759.19
2023-02-24T20:36:23.569Z,96748.03
2023-02-24T20:39:31.690Z,96744.28
2023-02-24T20:42:40.456Z,96744.06
2023-02-24T20:45:50.327Z,96752.31
2023-02-24T23:10:19.274Z,96699.34
2023-02-24T23:13:27.270Z,96706.19
2023-02-24T23:16:38.351Z,96710.69
2023-02-24T23:19:46.284Z,96713.50
2023-02-24T23:22:50.572Z,96708.44
2023-02-24T23:25:59.289Z,96708.69
2023-02-24T23:28:59.637Z,96698.97
2023-02-24T23:32:06.397Z,96700.06
2023-02-24T23:35:06.353Z,96695.06
2023-02-24T23:38:14.269Z,96684.28
2023-02-24T23:41:23.309Z,96679.25
2023-02-24T23:44:23.660Z,96679.19
2023-02-24T23:47:30.266Z,96683.97
2023-02-24T23:50:31.926Z,96698.47
2023-02-24T23:53:32.262Z,96706.06
2023-02-24T23:56:41.288Z,96712.75
2023-02-24T23:59:42.254Z,96710.69
